Time;durP1;ratioP1;P1;durP2;ratioP2;P2;SDS_P1;SDS_P2;PMS_P1;PMS_P2;Temp;Humidity;BMP_temperature;BMP_pressure;BME280_temperature;BME280_humidity;BME280_pressure;Samples;Min_cycle;Max_cycle;Signal;HPM_P1;HPM_P2
2022/05/17 00:00:39;;;;;;;0.30;0.30;;;19.50;73.20;;;;;;4406723;32;20540;-71
2022/05/17 00:03:04;;;;;;;0.30;0.30;;;19.50;73.30;;;;;;4420566;32;20072;-70
2022/05/17 00:05:30;;;;;;;0.32;0.30;;;19.40;73.60;;;;;;4426504;32;20093;-70
2022/05/17 00:07:56;;;;;;;0.22;0.22;;;19.40;73.50;;;;;;4424971;32;20097;-70
2022/05/17 00:10:23;;;;;;;0.17;0.17;;;19.30;73.30;;;;;;4423675;32;20105;-70
2022/05/17 00:12:50;;;;;;;0.75;0.68;;;19.30;73.20;;;;;;4426097;32;20085;-70
2022/05/17 00:15:16;;;;;;;0.25;0.25;;;19.30;73.60;;;;;;4424935;32;21386;-70
2022/05/17 00:17:42;;;;;;;0.20;0.20;;;19.30;76.20;;;;;;4427357;32;20078;-69
2022/05/17 00:20:08;;;;;;;5.87;0.57;;;19.30;76.00;;;;;;4426414;32;20089;-70
2022/05/17 00:22:34;;;;;;;1.35;0.68;;;19.20;75.40;;;;;;4428660;32;20073;-70
2022/05/17 00:25:00;;;;;;;0.20;0.20;;;19.20;75.60;;;;;;4425886;32;20069;-70
2022/05/17 00:27:26;;;;;;;0.75;0.40;;;19.10;76.90;;;;;;4419019;32;20984;-69
2022/05/17 00:29:51;;;;;;;7.57;0.50;;;19.00;76.10;;;;;;4406563;32;20085;-71
2022/05/17 00:32:17;;;;;;;0.40;0.40;;;19.00;78.40;;;;;;4418941;32;20453;-70
2022/05/17 00:34:44;;;;;;;0.47;0.47;;;18.90;76.80;;;;;;4429055;32;20152;-70
2022/05/17 00:37:10;;;;;;;1.15;0.77;;;19.00;76.40;;;;;;4424554;32;20070;-70
2022/05/17 00:39:35;;;;;;;0.20;0.20;;;19.00;76.40;;;;;;4425442;32;20080;-70
2022/05/17 00:42:01;;;;;;;0.30;0.30;;;19.00;75.80;;;;;;4424614;32;20057;-69
2022/05/17 00:44:58;;;;;;;0.50;0.50;;;19.00;76.20;;;;;;4426937;32;20137;-70
2022/05/17 00:47:18;;;;;;;0.30;0.30;;;19.00;76.20;;;;;;4413874;32;20470;-70
2022/05/17 00:49:53;;;;;;;0.30;0.30;;;19.00;76.30;;;;;;4425741;32;20276;-70
2022/05/17 00:52:25;;;;;;;2.45;1.10;;;19.10;77.60;;;;;;4424368;32;20061;-70
2022/05/17 00:54:54;;;;;;;20.08;0.73;;;19.00;78.30;;;;;;4425196;32;20078;-70
2022/05/17 00:57:32;;;;;;;0.45;0.45;;;18.90;81.20;;;;;;4422508;32;20117;-70
2022/05/17 01:00:01;;;;;;;0.30;0.30;;;18.80;81.80;;;;;;4408813;32;20427;-70
2022/05/17 01:02:28;;;;;;;0.40;0.40;;;18.80;84.70;;;;;;4422330;32;20079;-70
2022/05/17 01:04:54;;;;;;;0.43;0.40;;;18.60;84.30;;;;;;4427291;32;20109;-70
2022/05/17 01:07:23;;;;;;;0.30;0.30;;;18.50;86.10;;;;;;4427027;32;20081;-70
2022/05/17 01:09:49;;;;;;;0.22;0.22;;;18.40;88.30;;;;;;4428678;32;20532;-71
2022/05/17 01:12:14;;;;;;;0.75;0.40;;;18.20;89.40;;;;;;4429913;32;20069;-69
2022/05/17 01:15:12;;;;;;;0.45;0.45;;;18.10;88.80;;;;;;4426580;32;20482;-70
2022/05/17 01:17:32;;;;;;;0.32;0.32;;;18.00;88.30;;;;;;4415425;32;20069;-69
2022/05/17 01:19:58;;;;;;;11.35;0.73;;;18.10;88.10;;;;;;4426342;32;20070;-70
2022/05/17 01:22:24;;;;;;;2.50;1.35;;;18.00;87.70;;;;;;4432086;32;20056;-70
2022/05/17 01:24:50;;;;;;;0.95;0.88;;;18.00;87.10;;;;;;4428764;32;20552;-69
2022/05/17 01:27:22;;;;;;;1.30;0.68;;;18.00;88.60;;;;;;4423226;32;20073;-69
2022/05/17 01:29:49;;;;;;;1.08;0.57;;;18.10;88.50;;;;;;4408278;32;20814;-69
2022/05/17 01:32:15;;;;;;;0.20;0.20;;;18.10;88.80;;;;;;4418370;32;20530;-70
2022/05/17 01:34:42;;;;;;;0.20;0.20;;;18.10;88.20;;;;;;4428019;32;20144;-70
2022/05/17 01:37:08;;;;;;;0.40;0.40;;;18.10;90.20;;;;;;4425956;32;20387;-71
2022/05/17 01:39:35;;;;;;;0.75;0.30;;;18.10;90.20;;;;;;4427963;32;20057;-71
2022/05/17 01:42:01;;;;;;;0.30;0.30;;;18.00;91.90;;;;;;4428883;32;20410;-69
2022/05/17 01:44:26;;;;;;;0.88;0.37;;;18.10;93.40;;;;;;4430479;32;20718;-69
2022/05/17 01:46:52;;;;;;;0.70;0.70;;;18.00;92.80;;;;;;4427920;32;20090;-70
2022/05/17 01:49:18;;;;;;;0.88;0.77;;;17.90;93.20;;;;;;4427767;32;20492;-70
2022/05/17 01:51:43;;;;;;;0.30;0.30;;;17.80;94.00;;;;;;4428620;32;20069;-69
2022/05/17 01:54:09;;;;;;;1.02;0.68;;;17.70;95.80;;;;;;4426835;32;20070;-70
2022/05/17 01:56:34;;;;;;;0.30;0.30;;;17.60;97.80;;;;;;4427685;32;20058;-70
2022/05/17 01:59:00;;;;;;;0.95;0.62;;;17.50;98.10;;;;;;4411324;32;20073;-70
2022/05/17 02:01:26;;;;;;;0.45;0.40;;;17.60;97.80;;;;;;4413056;32;20057;-70
2022/05/17 02:03:52;;;;;;;0.45;0.37;;;17.50;98.70;;;;;;4429466;32;20130;-70
2022/05/17 02:06:18;;;;;;;0.30;0.30;;;17.30;99.90;;;;;;4428051;32;20089;-70
2022/05/17 02:08:43;;;;;;;0.45;0.45;;;17.00;99.90;;;;;;4427928;32;21371;-70
2022/05/17 02:11:09;;;;;;;3.40;0.57;;;16.90;99.90;;;;;;4428211;32;20069;-70
2022/05/17 02:13:35;;;;;;;0.32;0.32;;;16.80;99.90;;;;;;4424027;32;20571;-70
2022/05/17 02:16:04;;;;;;;1.65;0.57;;;16.70;99.90;;;;;;4425217;32;20065;-70
2022/05/17 02:18:30;;;;;;;0.30;0.30;;;16.80;99.90;;;;;;4425595;32;20061;-71
2022/05/17 02:20:55;;;;;;;1.45;0.50;;;16.90;99.90;;;;;;4423900;32;20443;-70
2022/05/17 02:23:21;;;;;;;0.37;0.37;;;16.90;99.90;;;;;;4427142;32;20073;-70
2022/05/17 02:25:46;;;;;;;0.40;0.40;;;16.60;99.90;;;;;;4428951;32;20069;-70
2022/05/17 02:28:13;;;;;;;0.85;0.40;;;16.60;99.90;;;;;;4420081;32;20085;-70
2022/05/17 02:30:41;;;;;;;0.30;0.30;;;16.70;99.90;;;;;;4406512;32;20086;-69
2022/05/17 02:33:07;;;;;;;0.30;0.30;;;16.60;99.90;;;;;;4426543;32;20575;-69
2022/05/17 02:35:33;;;;;;;0.30;0.30;;;16.50;99.90;;;;;;4427578;32;20057;-69
2022/05/17 02:37:59;;;;;;;1.17;0.85;;;16.40;99.90;;;;;;4424240;32;20540;-71
2022/05/17 02:40:25;;;;;;;0.52;0.43;;;16.50;99.90;;;;;;4427541;32;20117;-70
2022/05/17 02:42:51;;;;;;;0.50;0.50;;;16.40;99.90;;;;;;4428654;32;20082;-69
2022/05/17 02:45:16;;;;;;;0.40;0.40;;;16.40;99.90;;;;;;4431373;32;20111;-70
2022/05/17 02:47:42;;;;;;;2.17;0.88;;;16.30;99.90;;;;;;4429903;32;20061;-69
2022/05/17 02:50:09;;;;;;;0.30;0.30;;;16.10;99.90;;;;;;4425359;32;20140;-70
2022/05/17 02:52:35;;;;;;;1.00;0.47;;;16.10;99.90;;;;;;4425468;32;20136;-70
2022/05/17 02:55:01;;;;;;;9.82;1.05;;;16.20;99.90;;;;;;4425139;32;20062;-70
2022/05/17 02:57:26;;;;;;;0.50;0.50;;;16.10;99.90;;;;;;4420777;32;20536;-70
2022/05/17 02:59:52;;;;;;;2.10;0.93;;;16.10;99.90;;;;;;4404694;32;20081;-70
2022/05/17 03:02:17;;;;;;;0.28;0.28;;;16.10;99.90;;;;;;4418112;32;20116;-70
2022/05/17 03:04:43;;;;;;;1.08;0.62;;;16.10;99.90;;;;;;4425585;32;20062;-69
2022/05/17 03:07:08;;;;;;;0.70;0.57;;;16.00;99.90;;;;;;4426100;32;20089;-70
2022/05/17 03:09:34;;;;;;;3.62;0.50;;;15.90;99.90;;;;;;4427315;32;20069;-70
2022/05/17 03:12:02;;;;;;;0.60;0.60;;;15.90;99.90;;;;;;4427744;32;20124;-70
2022/05/17 03:14:27;;;;;;;0.30;0.30;;;15.80;99.90;;;;;;4426319;32;20117;-69
2022/05/17 03:16:53;;;;;;;0.50;0.50;;;15.90;99.90;;;;;;4429242;32;20097;-69
2022/05/17 03:19:18;;;;;;;5.57;0.43;;;15.80;99.90;;;;;;4425737;32;20097;-70
2022/05/17 03:21:44;;;;;;;0.43;0.43;;;15.90;99.90;;;;;;4427419;32;20597;-69
2022/05/17 03:24:09;;;;;;;1.48;0.65;;;15.90;99.90;;;;;;4427497;32;20156;-69
2022/05/17 03:26:35;;;;;;;2.70;0.60;;;15.90;99.90;;;;;;4424161;32;20151;-69
2022/05/17 03:29:00;;;;;;;1.02;0.90;;;15.90;99.90;;;;;;4410676;32;20082;-68
2022/05/17 03:31:26;;;;;;;1.35;0.50;;;15.90;99.90;;;;;;4410408;32;20474;-69
2022/05/17 03:33:52;;;;;;;0.35;0.35;;;15.80;99.90;;;;;;4426158;32;20066;-70
2022/05/17 03:36:18;;;;;;;5.85;0.55;;;15.80;99.90;;;;;;4425950;32;20073;-69
2022/05/17 03:38:44;;;;;;;0.70;0.70;;;15.60;99.90;;;;;;4426743;32;20077;-69
2022/05/17 03:41:10;;;;;;;0.62;0.62;;;15.70;99.90;;;;;;4426003;32;20097;-69
2022/05/17 03:43:35;;;;;;;0.40;0.40;;;15.80;99.90;;;;;;4422385;32;20395;-69
2022/05/17 03:46:01;;;;;;;0.57;0.57;;;15.80;99.90;;;;;;4426122;32;20382;-69
2022/05/17 03:48:28;;;;;;;0.62;0.60;;;15.70;99.90;;;;;;4426456;32;20548;-69
2022/05/17 03:50:54;;;;;;;0.40;0.40;;;15.60;99.90;;;;;;4425756;32;20504;-69
2022/05/17 03:53:20;;;;;;;0.62;0.62;;;15.50;99.90;;;;;;4425651;32;20064;-70
2022/05/17 03:55:46;;;;;;;0.50;0.50;;;15.30;99.90;;;;;;4426495;32;20541;-69
2022/05/17 03:58:11;;;;;;;1.15;0.82;;;15.20;99.90;;;;;;4415262;32;20604;-69
2022/05/17 04:00:37;;;;;;;0.55;0.55;;;15.10;99.90;;;;;;4407361;32;20082;-70
2022/05/17 04:03:03;;;;;;;0.30;0.30;;;15.10;99.90;;;;;;4425304;32;20061;-70
2022/05/17 04:05:29;;;;;;;0.75;0.75;;;15.00;99.90;;;;;;4425780;32;20147;-70
2022/05/17 04:07:55;;;;;;;1.40;0.57;;;14.80;99.90;;;;;;4423497;32;20477;-69
2022/05/17 04:10:22;;;;;;;0.40;0.40;;;14.80;99.90;;;;;;4426246;32;20086;-69
2022/05/17 04:12:47;;;;;;;0.40;0.40;;;14.80;99.90;;;;;;4424536;32;20074;-70
2022/05/17 04:15:17;;;;;;;0.43;0.43;;;14.60;99.90;;;;;;4429445;32;20085;-69
2022/05/17 04:17:42;;;;;;;0.30;0.30;;;14.70;99.90;;;;;;4418951;32;20077;-69
2022/05/17 04:20:10;;;;;;;0.40;0.40;;;14.80;99.90;;;;;;4421488;32;20538;-70
2022/05/17 04:22:36;;;;;;;0.95;0.88;;;14.80;99.90;;;;;;4401756;32;20070;-69
2022/05/17 04:25:02;;;;;;;1.75;0.70;;;14.80;99.90;;;;;;4379642;32;20865;-69
2022/05/17 04:27:28;;;;;;;0.40;0.40;;;14.70;99.90;;;;;;4379310;32;20205;-68
2022/05/17 04:29:53;;;;;;;0.22;0.22;;;14.50;99.90;;;;;;4366234;32;20380;-70
2022/05/17 04:32:19;;;;;;;0.65;0.43;;;14.30;99.90;;;;;;4375633;32;20273;-69
2022/05/17 04:34:44;;;;;;;0.40;0.40;;;14.30;99.90;;;;;;4396192;32;20089;-68
2022/05/17 04:37:10;;;;;;;2.05;0.90;;;14.20;99.90;;;;;;4427277;32;20191;-69
2022/05/17 04:39:37;;;;;;;3.45;0.73;;;14.30;99.90;;;;;;4425982;32;20170;-69
2022/05/17 04:42:03;;;;;;;1.95;1.25;;;14.30;99.90;;;;;;4428842;32;20563;-69
2022/05/17 04:44:29;;;;;;;1.20;0.82;;;14.40;99.90;;;;;;4426836;32;20492;-70
2022/05/17 04:46:54;;;;;;;0.37;0.37;;;14.40;99.90;;;;;;4426557;32;20056;-69
2022/05/17 04:49:20;;;;;;;0.22;0.22;;;14.50;99.90;;;;;;4428359;32;20069;-70
2022/05/17 04:51:51;;;;;;;0.70;0.70;;;14.50;99.90;;;;;;4424068;32;20057;-69
2022/05/17 04:54:16;;;;;;;1.20;0.60;;;14.50;99.90;;;;;;4382294;32;20572;-69
2022/05/17 04:56:41;;;;;;;0.55;0.52;;;14.50;99.90;;;;;;4405348;32;20069;-69
2022/05/17 04:59:07;;;;;;;0.40;0.40;;;14.50;99.90;;;;;;4408286;32;21015;-69
2022/05/17 05:01:34;;;;;;;1.52;0.45;;;14.60;99.90;;;;;;4406229;32;20057;-70
2022/05/17 05:03:59;;;;;;;1.20;0.85;;;14.70;99.90;;;;;;4398265;32;20346;-70
2022/05/17 05:06:27;;;;;;;1.75;0.85;;;14.70;99.90;;;;;;4385085;32;20577;-69
2022/05/17 05:08:52;;;;;;;0.73;0.73;;;14.60;99.90;;;;;;4376946;32;20065;-69
2022/05/17 05:11:18;;;;;;;0.52;0.52;;;14.60;99.90;;;;;;4376146;32;20113;-69
2022/05/17 05:13:44;;;;;;;0.65;0.65;;;14.60;99.90;;;;;;4372629;32;20062;-69
2022/05/17 05:16:11;;;;;;;2.20;1.10;;;14.60;99.90;;;;;;4387814;32;20165;-70
2022/05/17 05:18:36;;;;;;;0.45;0.45;;;14.50;99.90;;;;;;4359261;32;20159;-69
2022/05/17 05:21:06;;;;;;;0.40;0.40;;;14.50;99.90;;;;;;4337393;32;20050;-70
2022/05/17 05:23:31;;;;;;;0.85;0.85;;;14.50;99.90;;;;;;4321984;32;20681;-70
2022/05/17 05:25:59;;;;;;;0.52;0.45;;;14.50;99.90;;;;;;4319133;32;20152;-69
2022/05/17 05:28:25;;;;;;;2.42;0.55;;;14.50;99.90;;;;;;4331213;32;20451;-69
2022/05/17 05:30:50;;;;;;;0.43;0.43;;;14.50;99.90;;;;;;4309245;32;20907;-69
2022/05/17 05:33:16;;;;;;;2.90;0.95;;;14.50;99.90;;;;;;4344553;32;20424;-68
2022/05/17 05:35:41;;;;;;;1.30;0.60;;;14.50;99.90;;;;;;4342939;32;20106;-69
2022/05/17 05:38:07;;;;;;;1.20;1.10;;;14.50;99.90;;;;;;4342503;32;20582;-69
2022/05/17 05:40:34;;;;;;;0.55;0.45;;;14.50;99.90;;;;;;4355019;32;20311;-68
2022/05/17 05:43:00;;;;;;;0.40;0.40;;;14.60;99.90;;;;;;4365992;32;20482;-70
2022/05/17 05:45:25;;;;;;;2.90;1.10;;;14.60;99.90;;;;;;4379511;32;20630;-69
2022/05/17 05:47:51;;;;;;;0.55;0.55;;;14.70;99.90;;;;;;4389265;32;20260;-69
2022/05/17 05:50:16;;;;;;;2.60;1.10;;;14.80;99.90;;;;;;4365907;32;20112;-69
2022/05/17 05:52:42;;;;;;;0.65;0.50;;;14.70;99.90;;;;;;4376187;32;20844;-69
2022/05/17 05:55:15;;;;;;;0.80;0.80;;;14.80;99.90;;;;;;4387786;32;20577;-70
2022/05/17 05:57:40;;;;;;;19.73;2.50;;;15.00;99.90;;;;;;4379417;32;20311;-71
2022/05/17 06:00:08;;;;;;;0.40;0.40;;;15.10;99.90;;;;;;4367465;32;20352;-69
2022/05/17 06:02:33;;;;;;;1.45;1.08;;;15.10;99.90;;;;;;4358705;32;20287;-69
2022/05/17 06:04:59;;;;;;;0.22;0.22;;;15.20;99.90;;;;;;4353175;32;20078;-69
2022/05/17 06:07:24;;;;;;;0.30;0.30;;;15.10;99.90;;;;;;4363723;32;20350;-68
2022/05/17 06:09:50;;;;;;;1.45;0.62;;;15.00;99.90;;;;;;4375354;32;20686;-69
2022/05/17 06:12:15;;;;;;;0.30;0.30;;;15.10;99.90;;;;;;4372022;32;20163;-69
2022/05/17 06:14:41;;;;;;;0.52;0.52;;;15.00;99.90;;;;;;4368447;32;20548;-69
2022/05/17 06:17:06;;;;;;;17.17;1.87;;;15.00;99.90;;;;;;4372451;32;21350;-69
2022/05/17 06:19:33;;;;;;;2.33;1.15;;;15.10;99.90;;;;;;4359646;32;20224;-70
2022/05/17 06:21:58;;;;;;;1.67;1.08;;;15.20;99.90;;;;;;4371794;32;20300;-69
2022/05/17 06:24:24;;;;;;;0.75;0.75;;;15.20;99.90;;;;;;4372962;32;20110;-70
2022/05/17 06:26:49;;;;;;;0.60;0.60;;;15.30;99.90;;;;;;4379836;32;20102;-70
2022/05/17 06:29:15;;;;;;;4.07;0.77;;;15.50;99.90;;;;;;4358174;32;20077;-69
2022/05/17 06:31:40;;;;;;;1.00;0.82;;;15.60;99.90;;;;;;4363836;32;21480;-69
2022/05/17 06:34:06;;;;;;;3.60;0.88;;;15.50;99.90;;;;;;4357694;32;20097;-69
2022/05/17 06:36:31;;;;;;;0.98;0.57;;;15.60;99.90;;;;;;4373578;32;20440;-69
2022/05/17 06:38:56;;;;;;;0.30;0.30;;;15.50;99.90;;;;;;4376862;32;20089;-69
2022/05/17 06:41:22;;;;;;;3.35;1.02;;;15.50;99.90;;;;;;4380835;32;20583;-70
2022/05/17 06:43:47;;;;;;;1.83;0.80;;;15.50;99.90;;;;;;4380321;32;20860;-70
2022/05/17 06:46:13;;;;;;;0.60;0.60;;;15.50;99.90;;;;;;4379925;32;20603;-70
2022/05/17 06:48:38;;;;;;;0.60;0.60;;;15.50;99.90;;;;;;4366932;32;20459;-70
2022/05/17 06:51:06;;;;;;;0.43;0.43;;;15.50;99.90;;;;;;4374164;32;20097;-70
2022/05/17 06:53:32;;;;;;;1.08;0.73;;;15.60;99.90;;;;;;4369427;32;22022;-70
2022/05/17 06:55:58;;;;;;;0.30;0.30;;;15.60;99.90;;;;;;4376483;32;20089;-70
2022/05/17 06:58:25;;;;;;;0.50;0.37;;;15.60;99.90;;;;;;4381645;32;20659;-70
2022/05/17 07:00:51;;;;;;;9.15;1.55;;;15.70;99.90;;;;;;4357997;32;20425;-70
2022/05/17 07:03:16;;;;;;;0.40;0.40;;;15.60;99.90;;;;;;4350751;32;20483;-70
2022/05/17 07:05:42;;;;;;;0.75;0.70;;;15.60;99.90;;;;;;4368407;32;20109;-70
2022/05/17 07:08:07;;;;;;;2.00;0.90;;;15.60;99.90;;;;;;4374798;32;20510;-69
2022/05/17 07:13:19;;;;;;;6.30;0.88;;;15.70;99.90;;;;;;4364260;32;20101;-70
2022/05/17 07:15:47;;;;;;;0.52;0.52;;;15.80;99.90;;;;;;4383718;32;20792;-70
2022/05/17 07:18:17;;;;;;;0.50;0.50;;;15.70;99.90;;;;;;4374704;32;20740;-70
2022/05/17 07:20:43;;;;;;;2.08;0.90;;;15.80;99.90;;;;;;4370856;32;21133;-70
2022/05/17 07:23:10;;;;;;;1.55;0.93;;;15.90;99.90;;;;;;4372397;32;20089;-70
2022/05/17 07:25:36;;;;;;;0.70;0.70;;;15.90;99.90;;;;;;4382450;32;20093;-70
2022/05/17 07:28:02;;;;;;;0.73;0.60;;;15.90;99.90;;;;;;4377221;32;20658;-70
2022/05/17 07:30:28;;;;;;;0.40;0.40;;;16.00;99.90;;;;;;4358535;32;20285;-70
2022/05/17 07:32:54;;;;;;;0.50;0.50;;;16.00;99.90;;;;;;4344349;32;20887;-70
2022/05/17 07:35:20;;;;;;;0.93;0.85;;;16.00;99.90;;;;;;4361138;32;20106;-70
2022/05/17 07:37:45;;;;;;;0.62;0.52;;;16.00;99.90;;;;;;4370213;32;82867;-70
2022/05/17 07:40:13;;;;;;;1.17;0.75;;;16.00;99.90;;;;;;4393853;32;20912;-70
2022/05/17 07:42:40;;;;;;;1.25;0.82;;;16.00;99.90;;;;;;4394236;32;21000;-70
2022/05/17 07:45:08;;;;;;;0.60;0.60;;;16.00;99.90;;;;;;4401853;32;20064;-70
2022/05/17 07:47:33;;;;;;;0.62;0.62;;;16.10;99.90;;;;;;4392487;32;20191;-70
2022/05/17 07:49:59;;;;;;;1.80;0.65;;;16.00;99.90;;;;;;4375816;32;20418;-70
2022/05/17 07:52:25;;;;;;;0.77;0.77;;;16.00;99.90;;;;;;4370427;32;20082;-71
2022/05/17 07:54:51;;;;;;;0.77;0.77;;;15.80;99.90;;;;;;4365157;32;20229;-71
2022/05/17 07:57:16;;;;;;;1.08;0.80;;;15.80;99.90;;;;;;4380403;32;20556;-70
2022/05/17 07:59:43;;;;;;;0.85;0.70;;;15.70;99.90;;;;;;4357122;32;20930;-70
2022/05/17 08:02:09;;;;;;;0.57;0.57;;;15.70;99.90;;;;;;4354890;32;21191;-71
2022/05/17 08:04:34;;;;;;;1.20;0.80;;;15.80;99.90;;;;;;4360588;32;20552;-71
2022/05/17 08:07:00;;;;;;;1.67;0.80;;;15.80;99.90;;;;;;4376735;32;20104;-71
2022/05/17 08:09:26;;;;;;;0.52;0.52;;;15.90;99.90;;;;;;4382484;32;20214;-73
2022/05/17 08:11:52;;;;;;;0.62;0.62;;;15.80;99.90;;;;;;4378812;32;20108;-71
2022/05/17 08:14:17;;;;;;;0.95;0.80;;;15.80;99.90;;;;;;4373296;32;20085;-71
2022/05/17 08:16:43;;;;;;;0.73;0.73;;;15.80;99.90;;;;;;4367823;32;20082;-71
2022/05/17 08:19:10;;;;;;;0.50;0.50;;;15.90;99.90;;;;;;4359522;32;20384;-71
2022/05/17 08:21:35;;;;;;;0.57;0.57;;;16.00;99.90;;;;;;4372143;32;20117;-71
2022/05/17 08:24:01;;;;;;;2.53;0.52;;;15.90;99.90;;;;;;4368442;32;20089;-70
2022/05/17 08:27:41;;;;;;;0.55;0.45;;;15.90;99.90;;;;;;4376844;32;20829;-71
2022/05/17 08:29:12;;;;;;;0.60;0.60;;;16.10;99.90;;;;;;4363625;32;20247;-72
2022/05/17 08:31:38;;;;;;;0.80;0.65;;;16.00;99.90;;;;;;4356299;32;20141;-71
2022/05/17 08:34:03;;;;;;;0.80;0.65;;;16.10;99.90;;;;;;4351876;32;20117;-71
2022/05/17 08:36:29;;;;;;;0.95;0.60;;;16.00;99.90;;;;;;4370057;32;20336;-71
2022/05/17 08:38:54;;;;;;;0.50;0.50;;;16.10;99.90;;;;;;4376341;32;20093;-71
2022/05/17 08:41:36;;;;;;;6.93;1.20;;;16.20;99.90;;;;;;4381753;32;20117;-71
2022/05/17 08:44:04;;;;;;;0.55;0.55;;;16.30;99.90;;;;;;4372463;32;21271;-71
2022/05/17 08:47:06;;;;;;;0.47;0.47;;;16.40;99.90;;;;;;4381155;32;20162;-71
2022/05/17 08:49:41;;;;;;;0.40;0.32;;;16.40;99.90;;;;;;4354171;32;20105;-71
2022/05/17 08:52:12;;;;;;;0.50;0.50;;;16.50;99.90;;;;;;4376934;32;21868;-70
2022/05/17 08:54:44;;;;;;;1.45;1.20;;;16.50;99.90;;;;;;4379464;32;20084;-71
2022/05/17 08:57:46;;;;;;;0.65;0.65;;;16.50;99.90;;;;;;4379579;32;20097;-70
2022/05/17 09:00:24;;;;;;;1.15;0.70;;;16.50;99.90;;;;;;4340488;32;20185;-70
2022/05/17 09:02:52;;;;;;;0.70;0.32;;;16.60;99.90;;;;;;4356226;32;20448;-69
2022/05/17 09:05:33;;;;;;;0.68;0.57;;;16.50;99.90;;;;;;4374331;32;20204;-69
2022/05/17 09:08:19;;;;;;;;;;;16.70;99.90;;;;;;4380629;32;20210;-66
2022/05/17 09:10:56;;;;;;;0.75;0.65;;;16.90;99.90;;;;;;4362914;32;20109;-68
2022/05/17 09:13:53;;;;;;;0.47;0.47;;;17.10;99.90;;;;;;4375628;32;21732;-69
2022/05/17 09:16:21;;;;;;;0.40;0.37;;;17.40;99.90;;;;;;4374332;32;20082;-69
2022/05/17 09:18:49;;;;;;;3.10;1.10;;;17.40;99.90;;;;;;4360012;32;21059;-69
2022/05/17 09:21:35;;;;;;;0.70;0.65;;;17.30;99.90;;;;;;4362057;32;20359;-68
2022/05/17 09:24:05;;;;;;;0.45;0.45;;;17.40;99.90;;;;;;4351171;32;20093;-67
2022/05/17 09:26:32;;;;;;;0.93;0.80;;;17.60;99.90;;;;;;4367408;32;20922;-69
2022/05/17 09:29:04;;;;;;;0.35;0.32;;;17.80;99.90;;;;;;4357508;32;20245;-68
2022/05/17 09:31:35;;;;;;;0.30;0.25;;;17.90;99.90;;;;;;4353554;32;20465;-69
2022/05/17 09:34:05;;;;;;;1.58;0.52;;;17.90;99.90;;;;;;4350485;32;21013;-69
2022/05/17 09:36:42;;;;;;;0.40;0.40;;;17.90;99.90;;;;;;4372108;32;20088;-70
2022/05/17 09:39:08;;;;;;;0.43;0.43;;;18.00;99.90;;;;;;4369233;32;21234;-70
2022/05/17 09:41:39;;;;;;;0.30;0.30;;;18.00;99.90;;;;;;4373668;32;20093;-70
2022/05/17 09:44:10;;;;;;;0.60;0.60;;;18.00;99.90;;;;;;4379766;32;20066;-70
2022/05/17 09:46:43;;;;;;;2.12;0.57;;;18.00;99.90;;;;;;4383639;32;20581;-70
2022/05/17 09:52:52;;;;;;;0.40;0.40;;;18.00;99.90;;;;;;4359224;32;20327;-70
2022/05/17 09:55:14;;;;;;;;;;;18.00;99.90;;;;;;4357082;32;20340;-71
2022/05/17 09:57:58;;;;;;;0.60;0.60;;;18.10;99.90;;;;;;4370941;32;20078;-71
2022/05/17 10:00:29;;;;;;;0.55;0.55;;;18.10;99.90;;;;;;4357648;32;20251;-70
2022/05/17 10:03:18;;;;;;;0.88;0.70;;;18.10;99.90;;;;;;4342939;32;20505;-70
2022/05/17 10:05:47;;;;;;;0.73;0.50;;;18.10;99.90;;;;;;4352373;32;20504;-70
2022/05/17 10:08:15;;;;;;;0.57;0.57;;;18.20;99.90;;;;;;4361959;32;20093;-70
2022/05/17 10:10:46;;;;;;;0.37;0.37;;;18.30;99.90;;;;;;4370961;32;20203;-70
2022/05/17 10:13:19;;;;;;;0.47;0.47;;;18.30;99.90;;;;;;4368159;32;20612;-70
2022/05/17 10:15:48;;;;;;;0.40;0.40;;;18.20;99.90;;;;;;4368072;32;20365;-70
2022/05/17 10:18:30;;;;;;;0.37;0.37;;;18.10;99.90;;;;;;4343231;32;20137;-70
2022/05/17 10:21:03;;;;;;;4.40;1.08;;;18.20;99.90;;;;;;4345072;32;20298;-70
2022/05/17 10:23:36;;;;;;;1.55;1.05;;;18.40;99.90;;;;;;4357131;32;20167;-70
2022/05/17 10:26:10;;;;;;;10.32;0.88;;;18.40;99.90;;;;;;4375146;32;21122;-71
2022/05/17 10:28:57;;;;;;;0.32;0.32;;;18.30;99.90;;;;;;4373288;32;20200;-69
2022/05/17 10:31:30;;;;;;;0.35;0.35;;;18.30;99.90;;;;;;4347341;32;20483;-70
2022/05/17 10:34:28;;;;;;;0.62;0.57;;;18.40;99.90;;;;;;4356114;32;20654;-70
2022/05/17 10:37:02;;;;;;;0.50;0.50;;;18.40;99.90;;;;;;4363516;32;21080;-69
2022/05/17 10:39:34;;;;;;;0.65;0.55;;;18.20;99.90;;;;;;4386233;32;20483;-70
2022/05/17 10:41:59;;;;;;;0.65;0.65;;;18.20;99.90;;;;;;4385053;32;20199;-70
2022/05/17 10:44:37;;;;;;;1.27;0.60;;;18.30;99.90;;;;;;4392171;32;20094;-70
2022/05/17 10:47:25;;;;;;;0.70;0.70;;;18.40;99.90;;;;;;4378985;32;20077;-70
2022/05/17 10:50:19;;;;;;;0.60;0.60;;;18.50;99.90;;;;;;4342889;32;20100;-70
2022/05/17 10:52:56;;;;;;;0.35;0.35;;;18.70;99.90;;;;;;4352676;32;20160;-70
2022/05/17 10:55:55;;;;;;;0.43;0.43;;;18.90;99.90;;;;;;4368733;32;20575;-71
2022/05/17 10:58:28;;;;;;;0.30;0.30;;;19.10;99.90;;;;;;4359807;32;20140;-71
2022/05/17 11:01:02;;;;;;;0.37;0.37;;;19.30;99.90;;;;;;4359756;32;20304;-70
2022/05/17 11:03:41;;;;;;;0.95;0.90;;;19.50;99.90;;;;;;4353879;32;20126;-70
2022/05/17 11:06:14;;;;;;;1.08;0.93;;;19.80;99.90;;;;;;4378363;32;20220;-69
2022/05/17 11:09:07;;;;;;;0.50;0.47;;;19.70;99.90;;;;;;4377791;32;20176;-70
2022/05/17 11:12:01;;;;;;;0.50;0.50;;;19.70;99.90;;;;;;4372547;32;20258;-70
2022/05/17 11:14:51;;;;;;;0.32;0.32;;;19.70;99.90;;;;;;4371669;32;20113;-70
2022/05/17 11:17:44;;;;;;;0.60;0.60;;;19.80;99.90;;;;;;4367391;32;20252;-70
2022/05/17 11:20:17;;;;;;;3.70;0.50;;;19.80;99.90;;;;;;4351450;32;20323;-70
2022/05/17 11:22:50;;;;;;;0.73;0.73;;;19.60;99.90;;;;;;4372514;32;20327;-70
2022/05/17 11:25:44;;;;;;;2.55;0.85;;;19.80;99.90;;;;;;4368064;32;20113;-70
2022/05/17 11:28:15;;;;;;;0.45;0.45;;;19.80;99.90;;;;;;4366392;32;20325;-69
2022/05/17 11:31:04;;;;;;;0.73;0.73;;;19.90;99.90;;;;;;4372743;32;20585;-69
2022/05/17 11:33:34;;;;;;;0.60;0.60;;;19.90;99.90;;;;;;4361961;32;21745;-70
2022/05/17 11:36:05;;;;;;;3.30;0.73;;;20.10;99.90;;;;;;4382705;32;20212;-69
2022/05/17 11:38:34;;;;;;;0.47;0.47;;;20.20;99.90;;;;;;4375692;32;20288;-69
2022/05/17 11:41:01;;;;;;;0.35;0.35;;;20.30;99.90;;;;;;4359703;32;20765;-70
2022/05/17 11:43:45;;;;;;;0.35;0.35;;;20.50;99.90;;;;;;4347163;32;20602;-70
2022/05/17 11:46:31;;;;;;;1.27;0.90;;;20.70;99.90;;;;;;4358880;32;20089;-69
2022/05/17 11:49:19;;;;;;;1.30;0.77;;;21.10;99.90;;;;;;4343971;32;20992;-70
2022/05/17 11:52:02;;;;;;;0.43;0.43;;;21.20;99.90;;;;;;4374963;32;20789;-71
2022/05/17 11:54:45;;;;;;;0.65;0.55;;;21.10;99.90;;;;;;4388581;32;20175;-72
2022/05/17 11:57:12;;;;;;;0.40;0.40;;;20.90;99.90;;;;;;4392751;32;20187;-72
2022/05/17 11:59:44;;;;;;;0.93;0.50;;;21.00;99.90;;;;;;4376263;32;20268;-72
2022/05/17 12:02:13;;;;;;;0.47;0.47;;;21.10;99.90;;;;;;4381978;32;20146;-72
2022/05/17 12:04:43;;;;;;;0.57;0.57;;;21.20;99.90;;;;;;4379083;32;20563;-71
2022/05/17 12:07:21;;;;;;;1.85;0.40;;;21.10;99.90;;;;;;4397051;32;20828;-73
2022/05/17 12:09:50;;;;;;;0.60;0.50;;;21.10;99.90;;;;;;4386872;32;20345;-72
2022/05/17 12:12:28;;;;;;;0.90;0.60;;;21.10;99.90;;;;;;4368004;32;21941;-72
2022/05/17 12:15:09;;;;;;;0.43;0.40;;;21.30;99.90;;;;;;4370978;32;20209;-72
2022/05/17 12:17:38;;;;;;;0.28;0.28;;;21.30;99.90;;;;;;4385040;32;20144;-72
2022/05/17 12:20:15;;;;;;;1.02;0.93;;;21.30;99.90;;;;;;4378186;32;20231;-70
2022/05/17 12:23:05;;;;;;;0.57;0.57;;;21.20;99.90;;;;;;4387235;32;20203;-74
2022/05/17 12:25:48;;;;;;;1.02;0.98;;;21.20;99.90;;;;;;4396272;32;20152;-71
2022/05/17 12:28:22;;;;;;;0.60;0.60;;;21.30;99.90;;;;;;4380787;32;20294;-71
2022/05/17 12:30:53;;;;;;;0.40;0.40;;;21.40;99.90;;;;;;4378263;32;20423;-71
2022/05/17 12:33:30;;;;;;;0.30;0.30;;;21.30;99.90;;;;;;4362033;32;20623;-70
2022/05/17 12:36:12;;;;;;;0.20;0.20;;;21.40;99.90;;;;;;4378883;32;20353;-71
2022/05/17 12:43:29;;;;;;;0.50;0.50;;;21.70;99.90;;;;;;4368551;32;20393;-71
2022/05/17 12:44:20;;;;;;;0.30;0.30;;;22.00;99.90;;;;;;4360253;32;20280;-71
2022/05/17 12:46:48;;;;;;;0.20;0.20;;;22.20;99.90;;;;;;4378638;32;20077;-72
2022/05/17 12:49:19;;;;;;;0.90;0.50;;;22.30;99.90;;;;;;4383249;32;20454;-72
2022/05/17 12:51:53;;;;;;;1.25;0.40;;;22.40;99.90;;;;;;4393866;32;20675;-72
2022/05/17 12:54:22;;;;;;;0.50;0.45;;;22.40;99.90;;;;;;4398884;32;20089;-72
2022/05/17 12:56:48;;;;;;;10.27;0.70;;;22.30;99.90;;;;;;4405420;32;20098;-71
2022/05/17 12:59:22;;;;;;;4.90;0.90;;;22.30;99.90;;;;;;4387524;32;20374;-72
2022/05/17 13:01:56;;;;;;;0.20;0.20;;;22.40;99.90;;;;;;4394870;32;20502;-71
2022/05/17 13:04:37;;;;;;;1.65;0.37;;;22.90;99.90;;;;;;4378281;32;20369;-71
2022/05/17 13:07:13;;;;;;;0.20;0.20;;;23.50;99.90;;;;;;4400533;32;20952;-72
2022/05/17 13:09:58;;;;;;;1.25;0.70;;;23.60;99.90;;;;;;4398554;32;20576;-72